This is the latest recevied weather packets stored in our database for station/object W3TMB. If no packets are shown the sender has not sent any weather packets the latest 10 day(s).
| Time | Temp. | Humidity | Pressure | Rain* | Wind** | Luminosity | Snow |
|---|---|---|---|---|---|---|---|
| 1778151145 | 5.56° C | 94% | 1010.5 hPa | 0 mm | - | 34 W/m² | - |
| 1778150842 | 4.44° C | 97% | 1010.4 hPa | 0 mm | - | 29 W/m² | - |
| 1778150539 | 3.89° C | 98% | 1010.4 hPa | 0 mm | - | 26 W/m² | - |
| 1778150235 | 3.89° C | 99% | 1010.5 hPa | 0 mm | - | 20 W/m² | - |
| 1778149931 | 3.33° C | 99% | 1010.5 hPa | 0 mm | - | 17 W/m² | - |
| 1778149628 | 3.33° C | 99% | 1010.2 hPa | 0 mm | - | 14 W/m² | - |
| 1778149324 | 3.33° C | 99% | 1010.3 hPa | 0 mm | - | 12 W/m² | - |
| 1778149020 | 3.33° C | 99% | 1010.1 hPa | 0 mm | - | 9 W/m² | - |
| 1778148716 | 3.33° C | 98% | 1010.2 hPa | 0 mm | - | 6 W/m² | - |
| 1778148413 | 3.33° C | 98% | 1010.1 hPa | 0 mm | - | 3 W/m² | - |
| 1778148112 | 3.33° C | 98% | 1010.1 hPa | 0 mm | - | 1 W/m² | - |
| 1778147809 | 3.33° C | 98% | 1010.3 hPa | 0 mm | - | 0 W/m² | - |
| 1778147506 | 3.33° C | 98% | 1010 hPa | 0 mm | - | 0 W/m² | - |
| 1778147202 | 3.89° C | 97% | 1010.3 hPa | 0 mm | - | 0 W/m² | - |
| 1778146899 | 3.89° C | 97% | 1010 hPa | 0 mm | - | 0 W/m² | - |
| 1778146597 | 3.89° C | 97% | 1009.9 hPa | 0 mm | - | 0 W/m² | - |
| 1778146295 | 3.89° C | 97% | 1010.2 hPa | 0 mm | - | 0 W/m² | - |
| 1778145991 | 3.89° C | 97% | 1010.1 hPa | 0 mm | - | 0 W/m² | - |
| 1778145688 | 3.89° C | 96% | 1010.1 hPa | 0 mm | - | 0 W/m² | - |
| 1778145384 | 3.89° C | 96% | 1010.1 hPa | 0 mm | - | 0 W/m² | - |
| 1778145080 | 4.44° C | 96% | 1010 hPa | 0 mm | - | 0 W/m² | - |
| 1778144776 | 4.44° C | 95% | 1009.9 hPa | 0 mm | - | 0 W/m² | - |
| 1778144474 | 5° C | 95% | 1009.8 hPa | 0 mm | - | 0 W/m² | - |
| 1778144171 | 4.44° C | 94% | 1009.7 hPa | 0 mm | - | 0 W/m² | - |
| 1778143867 | 5° C | 93% | 1009.9 hPa | 0 mm | - | 0 W/m² | - |
* Rain latest hour (hover to see other rain measurements)
** Current wind speed in m/s (hover to see current wind gust speed)